N2324K KFOK-KPOU
Flight info
| Callsign | N2324K |
|---|---|
| Flight time | 0h 45m |
| Altitude | 8000 |
| Route | BDR V91 STUBY TRESA TRESA1 |
| Aircraft | T34P/L-BDFGLORY/S |
Departure
| Time | 2026-05-05 00:01 |
|---|---|
| Airport | Francis S Gabreski Airport (KFOK) |
Arrival
| Time | 2026-05-05 00:46 |
|---|---|
| Airport | Dutchess County Airport (KPOU) |
| Time | Latitude | Longitude | Altitude | Speed | Heading |
|---|---|---|---|---|---|
| 2026-05-04 23:31 | 40.84246 | -72.64000 | 57 ft | 0 kts | 178° |
| 2026-05-04 23:50 | 40.84245 | -72.64000 | 57 ft | 1 kts | 193° |
| 2026-05-04 23:51 | 40.84249 | -72.64008 | 57 ft | 1 kts | 12° |
| 2026-05-04 23:51 | 40.84269 | -72.63988 | 57 ft | 8 kts | 42° |
| 2026-05-04 23:51 | 40.84306 | -72.63924 | 56 ft | 7 kts | 4° |
| 2026-05-04 23:51 | 40.84362 | -72.63940 | 26 ft | 11 kts | 346° |
| 2026-05-04 23:52 | 40.84461 | -72.63954 | 58 ft | 17 kts | 359° |
| 2026-05-04 23:52 | 40.84569 | -72.63952 | 58 ft | 15 kts | 356° |
| 2026-05-04 23:52 | 40.84670 | -72.63950 | 56 ft | 14 kts | 17° |
| 2026-05-04 23:52 | 40.84759 | -72.63905 | 55 ft | 12 kts | 30° |
| 2026-05-04 23:53 | 40.84789 | -72.63869 | 62 ft | 0 kts | 53° |
| 2026-05-04 23:53 | 40.84816 | -72.63837 | 67 ft | 11 kts | 38° |
| 2026-05-04 23:53 | 40.84857 | -72.63732 | 75 ft | 15 kts | 87° |
| 2026-05-04 23:53 | 40.84862 | -72.63577 | 67 ft | 17 kts | 86° |
| 2026-05-04 23:54 | 40.84864 | -72.63427 | 68 ft | 12 kts | 88° |
| 2026-05-04 23:54 | 40.84870 | -72.63315 | 66 ft | 13 kts | 85° |
| 2026-05-04 23:54 | 40.84875 | -72.63189 | 61 ft | 14 kts | 82° |
| 2026-05-04 23:54 | 40.84877 | -72.63070 | 63 ft | 14 kts | 96° |
| 2026-05-04 23:55 | 40.84822 | -72.62964 | 57 ft | 13 kts | 131° |
| 2026-05-04 23:55 | 40.84793 | -72.62876 | 59 ft | 10 kts | 52° |
| 2026-05-04 23:55 | 40.85003 | -72.62618 | 58 ft | 29 kts | 37° |
| 2026-05-04 23:56 | 40.85136 | -72.62459 | 57 ft | 23 kts | 41° |
| 2026-05-04 23:56 | 40.85242 | -72.62328 | 64 ft | 19 kts | 43° |
| 2026-05-04 23:56 | 40.85338 | -72.62218 | 65 ft | 20 kts | 46° |
| 2026-05-04 23:56 | 40.85442 | -72.62092 | 66 ft | 19 kts | 40° |
| 2026-05-04 23:57 | 40.85533 | -72.61986 | 64 ft | 16 kts | 47° |
| 2026-05-04 23:57 | 40.85543 | -72.61885 | 66 ft | 9 kts | 121° |
| 2026-05-04 23:57 | 40.85513 | -72.61834 | 67 ft | 5 kts | 130° |
| 2026-05-04 23:57 | 40.85501 | -72.61815 | 66 ft | 0 kts | 131° |
| 2026-05-05 00:00 | 40.85500 | -72.61814 | 66 ft | 2 kts | 131° |
| 2026-05-05 00:00 | 40.85315 | -72.61865 | 70 ft | 44 kts | 227° |
| 2026-05-05 00:00 | 40.84939 | -72.62325 | 163 ft | 93 kts | 221° |
| 2026-05-05 00:01 | 40.84402 | -72.62967 | 578 ft | 102 kts | 221° |
| 2026-05-05 00:01 | 40.83940 | -72.63589 | 1169 ft | 96 kts | 227° |
| 2026-05-05 00:01 | 40.83554 | -72.64240 | 1728 ft | 84 kts | 231° |
| 2026-05-05 00:01 | 40.83392 | -72.64935 | 2222 ft | 97 kts | 284° |
| 2026-05-05 00:02 | 40.83792 | -72.65687 | 2661 ft | 102 kts | 295° |
| 2026-05-05 00:02 | 40.84092 | -72.66196 | 2890 ft | 112 kts | 303° |
| 2026-05-05 00:02 | 40.84765 | -72.66883 | 3082 ft | 134 kts | 313° |
| 2026-05-05 00:02 | 40.85564 | -72.67697 | 3074 ft | 154 kts | 313° |
| 2026-05-05 00:03 | 40.86433 | -72.68610 | 3076 ft | 164 kts | 313° |
| 2026-05-05 00:03 | 40.87638 | -72.69892 | 3076 ft | 169 kts | 313° |
| 2026-05-05 00:03 | 40.88258 | -72.70552 | 3089 ft | 169 kts | 314° |
| 2026-05-05 00:03 | 40.89128 | -72.71573 | 3076 ft | 164 kts | 304° |
| 2026-05-05 00:04 | 40.89842 | -72.72746 | 3076 ft | 163 kts | 301° |
| 2026-05-05 00:04 | 40.90551 | -72.73916 | 3077 ft | 163 kts | 302° |
| 2026-05-05 00:04 | 40.91276 | -72.75091 | 3085 ft | 166 kts | 302° |
| 2026-05-05 00:04 | 40.91990 | -72.76246 | 3289 ft | 159 kts | 302° |
| 2026-05-05 00:05 | 40.92671 | -72.77345 | 3483 ft | 154 kts | 302° |
| 2026-05-05 00:05 | 40.93338 | -72.78425 | 3672 ft | 150 kts | 302° |
| 2026-05-05 00:05 | 40.94206 | -72.79831 | 3938 ft | 146 kts | 302° |
| 2026-05-05 00:05 | 40.94629 | -72.80518 | 4073 ft | 145 kts | 302° |
| 2026-05-05 00:06 | 40.95263 | -72.81557 | 4272 ft | 146 kts | 302° |
| 2026-05-05 00:06 | 40.95899 | -72.82609 | 4474 ft | 147 kts | 302° |
| 2026-05-05 00:06 | 40.96546 | -72.83664 | 4676 ft | 149 kts | 304° |
| 2026-05-05 00:06 | 40.97229 | -72.84697 | 4879 ft | 150 kts | 305° |
| 2026-05-05 00:07 | 40.97914 | -72.85738 | 5078 ft | 151 kts | 305° |
| 2026-05-05 00:07 | 40.98599 | -72.86790 | 5278 ft | 151 kts | 305° |
| 2026-05-05 00:07 | 40.99283 | -72.87852 | 5472 ft | 152 kts | 305° |
| 2026-05-05 00:07 | 40.99963 | -72.88917 | 5678 ft | 152 kts | 305° |
| 2026-05-05 00:08 | 41.00642 | -72.89989 | 5882 ft | 152 kts | 305° |
| 2026-05-05 00:08 | 41.01315 | -72.91060 | 6087 ft | 151 kts | 304° |
| 2026-05-05 00:08 | 41.01982 | -72.92132 | 6296 ft | 151 kts | 304° |
| 2026-05-05 00:08 | 41.02643 | -72.93207 | 6488 ft | 150 kts | 304° |
| 2026-05-05 00:09 | 41.03298 | -72.94278 | 6681 ft | 149 kts | 304° |
| 2026-05-05 00:09 | 41.03949 | -72.95347 | 6874 ft | 149 kts | 304° |
| 2026-05-05 00:09 | 41.04605 | -72.96404 | 7049 ft | 148 kts | 304° |
| 2026-05-05 00:09 | 41.05255 | -72.97449 | 7245 ft | 147 kts | 304° |
| 2026-05-05 00:10 | 41.05902 | -72.98492 | 7443 ft | 146 kts | 304° |
| 2026-05-05 00:10 | 41.06542 | -72.99528 | 7641 ft | 145 kts | 304° |
| 2026-05-05 00:10 | 41.07177 | -73.00562 | 7842 ft | 144 kts | 304° |
| 2026-05-05 00:10 | 41.07811 | -73.01605 | 7948 ft | 150 kts | 304° |
| 2026-05-05 00:11 | 41.08477 | -73.02717 | 7949 ft | 158 kts | 304° |
| 2026-05-05 00:11 | 41.09168 | -73.03882 | 7962 ft | 163 kts | 304° |
| 2026-05-05 00:11 | 41.09930 | -73.04995 | 7962 ft | 163 kts | 303° |
| 2026-05-05 00:11 | 41.10590 | -73.06163 | 7951 ft | 150 kts | 304° |
| 2026-05-05 00:12 | 41.11244 | -73.07264 | 7951 ft | 155 kts | 304° |
| 2026-05-05 00:12 | 41.11915 | -73.08393 | 7953 ft | 154 kts | 304° |
| 2026-05-05 00:12 | 41.12573 | -73.09497 | 7942 ft | 151 kts | 304° |
| 2026-05-05 00:12 | 41.13221 | -73.10582 | 7942 ft | 149 kts | 305° |
| 2026-05-05 00:13 | 41.13910 | -73.11609 | 7941 ft | 149 kts | 308° |
| 2026-05-05 00:13 | 41.14605 | -73.12619 | 7938 ft | 148 kts | 308° |
| 2026-05-05 00:13 | 41.15297 | -73.13626 | 7937 ft | 148 kts | 308° |
| 2026-05-05 00:13 | 41.15994 | -73.14631 | 7951 ft | 147 kts | 309° |
| 2026-05-05 00:14 | 41.16865 | -73.15349 | 7950 ft | 151 kts | 324° |
| 2026-05-05 00:14 | 41.17718 | -73.16122 | 7947 ft | 146 kts | 311° |
| 2026-05-05 00:14 | 41.18349 | -73.17159 | 7947 ft | 144 kts | 300° |
| 2026-05-05 00:14 | 41.18906 | -73.18259 | 7946 ft | 144 kts | 299° |
| 2026-05-05 00:15 | 41.19451 | -73.19369 | 7946 ft | 144 kts | 298° |
| 2026-05-05 00:15 | 41.19994 | -73.20483 | 7943 ft | 143 kts | 298° |
| 2026-05-05 00:15 | 41.20536 | -73.21592 | 7942 ft | 143 kts | 298° |
| 2026-05-05 00:15 | 41.21072 | -73.22693 | 7948 ft | 141 kts | 299° |
| 2026-05-05 00:16 | 41.21889 | -73.23427 | 7939 ft | 153 kts | 340° |
| 2026-05-05 00:16 | 41.22979 | -73.23261 | 7929 ft | 162 kts | 7° |
| 2026-05-05 00:16 | 41.24066 | -73.22866 | 7944 ft | 161 kts | 7° |
| 2026-05-05 00:16 | 41.25151 | -73.22487 | 7939 ft | 161 kts | 6° |
| 2026-05-05 00:17 | 41.26240 | -73.22116 | 7940 ft | 162 kts | 6° |
| 2026-05-05 00:17 | 41.27331 | -73.21747 | 7948 ft | 161 kts | 6° |
| 2026-05-05 00:17 | 41.28417 | -73.21378 | 7949 ft | 163 kts | 6° |
| 2026-05-05 00:17 | 41.29528 | -73.21002 | 7954 ft | 165 kts | 7° |
| 2026-05-05 00:18 | 41.30643 | -73.20621 | 7961 ft | 166 kts | 6° |
| 2026-05-05 00:18 | 41.31768 | -73.20240 | 7947 ft | 168 kts | 6° |
| 2026-05-05 00:18 | 41.32901 | -73.19858 | 7958 ft | 167 kts | 5° |
| 2026-05-05 00:18 | 41.34003 | -73.19933 | 7957 ft | 155 kts | 335° |
| 2026-05-05 00:19 | 41.35027 | -73.20370 | 7958 ft | 155 kts | 335° |
| 2026-05-05 00:19 | 41.36057 | -73.20805 | 7957 ft | 156 kts | 335° |
| 2026-05-05 00:19 | 41.37093 | -73.21241 | 7956 ft | 157 kts | 335° |
| 2026-05-05 00:19 | 41.38118 | -73.21671 | 7976 ft | 156 kts | 335° |
| 2026-05-05 00:20 | 41.39155 | -73.22105 | 7976 ft | 156 kts | 334° |
| 2026-05-05 00:20 | 41.40187 | -73.22539 | 7977 ft | 155 kts | 335° |
| 2026-05-05 00:20 | 41.41223 | -73.22974 | 7978 ft | 156 kts | 334° |
| 2026-05-05 00:20 | 41.42262 | -73.23411 | 7964 ft | 157 kts | 335° |
| 2026-05-05 00:21 | 41.43305 | -73.23850 | 7962 ft | 157 kts | 334° |
| 2026-05-05 00:21 | 41.44348 | -73.24288 | 7957 ft | 158 kts | 335° |
| 2026-05-05 00:21 | 41.45394 | -73.24728 | 7957 ft | 158 kts | 335° |
| 2026-05-05 00:21 | 41.46439 | -73.25168 | 7961 ft | 157 kts | 335° |
| 2026-05-05 00:22 | 41.47481 | -73.25607 | 7956 ft | 157 kts | 334° |
| 2026-05-05 00:22 | 41.48522 | -73.26045 | 7952 ft | 157 kts | 335° |
| 2026-05-05 00:22 | 41.49550 | -73.26476 | 8021 ft | 151 kts | 335° |
| 2026-05-05 00:22 | 41.50548 | -73.26897 | 8043 ft | 151 kts | 334° |
| 2026-05-05 00:23 | 41.51556 | -73.27324 | 8046 ft | 153 kts | 334° |
| 2026-05-05 00:23 | 41.52567 | -73.27750 | 8048 ft | 155 kts | 334° |
| 2026-05-05 00:23 | 41.53600 | -73.28184 | 8047 ft | 156 kts | 334° |
| 2026-05-05 00:23 | 41.54643 | -73.28622 | 8063 ft | 155 kts | 335° |
| 2026-05-05 00:24 | 41.55658 | -73.29049 | 8050 ft | 155 kts | 334° |
| 2026-05-05 00:24 | 41.56683 | -73.29481 | 8050 ft | 155 kts | 335° |
| 2026-05-05 00:24 | 41.57710 | -73.29914 | 8049 ft | 155 kts | 334° |
| 2026-05-05 00:24 | 41.58742 | -73.30349 | 8051 ft | 156 kts | 335° |
| 2026-05-05 00:25 | 41.59778 | -73.30786 | 8051 ft | 157 kts | 334° |
| 2026-05-05 00:25 | 41.60821 | -73.31226 | 8051 ft | 157 kts | 334° |
| 2026-05-05 00:25 | 41.61865 | -73.31666 | 8051 ft | 158 kts | 334° |
| 2026-05-05 00:25 | 41.62914 | -73.32108 | 8052 ft | 158 kts | 335° |
| 2026-05-05 00:26 | 41.63964 | -73.32551 | 8034 ft | 157 kts | 334° |
| 2026-05-05 00:26 | 41.64994 | -73.32988 | 8038 ft | 155 kts | 334° |
| 2026-05-05 00:26 | 41.66023 | -73.33425 | 8040 ft | 156 kts | 334° |
| 2026-05-05 00:26 | 41.67056 | -73.33864 | 8039 ft | 155 kts | 334° |
| 2026-05-05 00:27 | 41.68078 | -73.34298 | 8040 ft | 157 kts | 334° |
| 2026-05-05 00:27 | 41.69134 | -73.34746 | 8043 ft | 158 kts | 335° |
| 2026-05-05 00:27 | 41.70169 | -73.35185 | 8040 ft | 157 kts | 335° |
| 2026-05-05 00:27 | 41.71209 | -73.35626 | 8040 ft | 156 kts | 334° |
| 2026-05-05 00:28 | 41.72246 | -73.36067 | 8041 ft | 156 kts | 334° |
| 2026-05-05 00:28 | 41.73287 | -73.36510 | 8042 ft | 157 kts | 334° |
| 2026-05-05 00:28 | 41.74329 | -73.36953 | 8040 ft | 157 kts | 334° |
| 2026-05-05 00:28 | 41.75368 | -73.37394 | 8021 ft | 156 kts | 334° |
| 2026-05-05 00:29 | 41.76405 | -73.37835 | 8022 ft | 156 kts | 334° |
| 2026-05-05 00:29 | 41.77445 | -73.38278 | 8020 ft | 156 kts | 334° |
| 2026-05-05 00:29 | 41.78484 | -73.38721 | 8018 ft | 157 kts | 334° |
| 2026-05-05 00:29 | 41.79524 | -73.39163 | 8022 ft | 157 kts | 334° |
| 2026-05-05 00:30 | 41.80570 | -73.39610 | 8025 ft | 158 kts | 335° |
| 2026-05-05 00:30 | 41.81607 | -73.40051 | 8018 ft | 159 kts | 335° |
| 2026-05-05 00:30 | 41.82661 | -73.40501 | 8015 ft | 159 kts | 334° |
| 2026-05-05 00:30 | 41.83718 | -73.40952 | 8016 ft | 159 kts | 334° |
| 2026-05-05 00:31 | 41.84778 | -73.41404 | 8016 ft | 160 kts | 334° |
| 2026-05-05 00:31 | 41.85841 | -73.41863 | 8018 ft | 160 kts | 335° |
| 2026-05-05 00:31 | 41.86897 | -73.42335 | 8018 ft | 158 kts | 329° |
| 2026-05-05 00:31 | 41.87734 | -73.43199 | 8016 ft | 150 kts | 308° |
| 2026-05-05 00:32 | 41.88055 | -73.44430 | 8015 ft | 144 kts | 261° |
| 2026-05-05 00:32 | 41.87469 | -73.45510 | 8015 ft | 150 kts | 223° |
| 2026-05-05 00:32 | 41.86606 | -73.46315 | 8016 ft | 152 kts | 220° |
| 2026-05-05 00:32 | 41.85737 | -73.47106 | 7894 ft | 147 kts | 220° |
| 2026-05-05 00:33 | 41.84915 | -73.47846 | 7591 ft | 137 kts | 220° |
| 2026-05-05 00:33 | 41.84137 | -73.48536 | 7290 ft | 131 kts | 220° |
| 2026-05-05 00:33 | 41.83393 | -73.49193 | 6979 ft | 125 kts | 220° |
| 2026-05-05 00:33 | 41.82827 | -73.49961 | 6691 ft | 112 kts | 255° |
| 2026-05-05 00:34 | 41.82685 | -73.50965 | 6399 ft | 108 kts | 249° |
| 2026-05-05 00:34 | 41.82334 | -73.51896 | 6083 ft | 116 kts | 244° |
| 2026-05-05 00:34 | 41.81938 | -73.52854 | 5776 ft | 121 kts | 243° |
| 2026-05-05 00:34 | 41.81513 | -73.53825 | 5468 ft | 121 kts | 240° |
| 2026-05-05 00:35 | 41.81077 | -73.54796 | 5161 ft | 121 kts | 239° |
| 2026-05-05 00:35 | 41.80637 | -73.55770 | 4878 ft | 124 kts | 239° |
| 2026-05-05 00:35 | 41.80179 | -73.56775 | 4583 ft | 130 kts | 238° |
| 2026-05-05 00:35 | 41.79706 | -73.57815 | 4270 ft | 131 kts | 238° |
| 2026-05-05 00:36 | 41.79218 | -73.58889 | 3844 ft | 137 kts | 238° |
| 2026-05-05 00:36 | 41.78733 | -73.59951 | 3424 ft | 129 kts | 238° |
| 2026-05-05 00:36 | 41.78270 | -73.60961 | 3034 ft | 127 kts | 237° |
| 2026-05-05 00:36 | 41.77864 | -73.61857 | 3005 ft | 99 kts | 237° |
| 2026-05-05 00:37 | 41.77520 | -73.62611 | 3009 ft | 92 kts | 237° |
| 2026-05-05 00:37 | 41.77187 | -73.63339 | 2992 ft | 89 kts | 237° |
| 2026-05-05 00:37 | 41.76870 | -73.64034 | 2991 ft | 87 kts | 237° |
| 2026-05-05 00:37 | 41.76565 | -73.64695 | 2989 ft | 80 kts | 236° |
| 2026-05-05 00:38 | 41.76296 | -73.65289 | 3006 ft | 67 kts | 236° |
| 2026-05-05 00:38 | 41.76042 | -73.65847 | 2994 ft | 75 kts | 235° |
| 2026-05-05 00:38 | 41.75753 | -73.66475 | 2993 ft | 88 kts | 236° |
| 2026-05-05 00:38 | 41.75389 | -73.67265 | 2999 ft | 110 kts | 236° |
| 2026-05-05 00:39 | 41.74963 | -73.68199 | 2999 ft | 124 kts | 236° |
| 2026-05-05 00:39 | 41.74422 | -73.69136 | 3001 ft | 130 kts | 230° |
| 2026-05-05 00:39 | 41.73845 | -73.70097 | 3001 ft | 134 kts | 231° |
| 2026-05-05 00:39 | 41.73254 | -73.71080 | 3003 ft | 136 kts | 230° |
| 2026-05-05 00:40 | 41.72656 | -73.72065 | 3001 ft | 137 kts | 230° |
| 2026-05-05 00:40 | 41.72061 | -73.73043 | 3002 ft | 133 kts | 231° |
| 2026-05-05 00:40 | 41.71519 | -73.73934 | 3001 ft | 112 kts | 230° |
| 2026-05-05 00:40 | 41.71060 | -73.74687 | 2997 ft | 99 kts | 231° |
| 2026-05-05 00:41 | 41.70654 | -73.75353 | 2989 ft | 86 kts | 230° |
| 2026-05-05 00:41 | 41.70293 | -73.75945 | 2983 ft | 79 kts | 230° |
| 2026-05-05 00:41 | 41.69961 | -73.76489 | 2984 ft | 73 kts | 229° |
| 2026-05-05 00:41 | 41.69644 | -73.77008 | 2979 ft | 72 kts | 229° |
| 2026-05-05 00:42 | 41.69332 | -73.77520 | 2967 ft | 70 kts | 230° |
| 2026-05-05 00:42 | 41.68986 | -73.78085 | 2737 ft | 88 kts | 230° |
| 2026-05-05 00:42 | 41.68574 | -73.78759 | 2489 ft | 98 kts | 230° |
| 2026-05-05 00:42 | 41.68123 | -73.79496 | 2248 ft | 106 kts | 230° |
| 2026-05-05 00:43 | 41.67652 | -73.80270 | 2016 ft | 107 kts | 229° |
| 2026-05-05 00:43 | 41.67207 | -73.81000 | 2002 ft | 96 kts | 229° |
| 2026-05-05 00:43 | 41.66804 | -73.81661 | 1998 ft | 84 kts | 228° |
| 2026-05-05 00:43 | 41.66476 | -73.82198 | 2000 ft | 68 kts | 229° |
| 2026-05-05 00:44 | 41.66153 | -73.82724 | 1813 ft | 77 kts | 226° |
| 2026-05-05 00:44 | 41.65786 | -73.83322 | 1612 ft | 84 kts | 227° |
| 2026-05-05 00:44 | 41.65461 | -73.83944 | 1405 ft | 87 kts | 243° |
| 2026-05-05 00:44 | 41.65141 | -73.84686 | 1209 ft | 97 kts | 234° |
| 2026-05-05 00:45 | 41.64710 | -73.85420 | 1033 ft | 102 kts | 226° |
| 2026-05-05 00:45 | 41.64248 | -73.86056 | 799 ft | 95 kts | 220° |
| 2026-05-05 00:45 | 41.63759 | -73.86726 | 594 ft | 96 kts | 228° |
| 2026-05-05 00:45 | 41.63327 | -73.87406 | 387 ft | 97 kts | 226° |
| 2026-05-05 00:46 | 41.62901 | -73.88045 | 169 ft | 80 kts | 230° |
| 2026-05-05 00:46 | 41.62631 | -73.88485 | 164 ft | 41 kts | 231° |
| 2026-05-05 00:46 | 41.62548 | -73.88599 | 164 ft | 7 kts | 179° |
| 2026-05-05 00:46 | 41.62513 | -73.88575 | 163 ft | 7 kts | 146° |
| 2026-05-05 00:47 | 41.62493 | -73.88551 | 163 ft | 0 kts | 137° |
| 2026-05-05 00:47 | 41.62490 | -73.88546 | 163 ft | 5 kts | 127° |
| 2026-05-05 00:47 | 41.62496 | -73.88502 | 162 ft | 12 kts | 52° |
| 2026-05-05 00:47 | 41.62548 | -73.88417 | 162 ft | 11 kts | 49° |
| 2026-05-05 00:48 | 41.62595 | -73.88342 | 162 ft | 10 kts | 52° |
| 2026-05-05 00:48 | 41.62637 | -73.88267 | 161 ft | 18 kts | 47° |
| 2026-05-05 00:48 | 41.62690 | -73.88175 | 162 ft | 17 kts | 47° |
| 2026-05-05 00:48 | 41.62763 | -73.88065 | 161 ft | 15 kts | 44° |
| 2026-05-05 00:49 | 41.62794 | -73.87974 | 160 ft | 2 kts | 119° |
| 2026-05-05 00:49 | 41.62792 | -73.87953 | 160 ft | 1 kts | 87° |
| 2026-05-05 00:49 | 41.62807 | -73.87901 | 160 ft | 9 kts | 144° |
| 2026-05-05 00:49 | 41.62789 | -73.87919 | 160 ft | 2 kts | 248° |
| 2026-05-05 00:50 | 41.62789 | -73.87926 | 160 ft | 1 kts | 329° |
| 2026-05-05 00:50 | 41.62790 | -73.87927 | 160 ft | 0 kts | 333° |
| 2026-05-05 00:50 | 41.62792 | -73.87928 | 160 ft | 0 kts | 333° |